Flight Track Log - Related Links

Times and Time Zones

All times are in EDT time to prevent confusion due to time zone crossing. See the UAL152 flight status page for this flight to view local times or setup timezone preferences in your user account.

Time Position Orientation Groundspeed Altitude Reporting Facility
EDT Latitude Longitude Course Direction KTS MPH feet Rate Location/Type
Sat 06:41:47 PM 40.6220 -74.2040 201° Southwest 185 213 2,600  Level FlightAware
Sat 06:42:02 PM 40.6190 -74.2160 252° West 190 219 2,900 1,714 Climbing FlightAware
Sat 06:42:22 PM 40.6280 -74.2380 298° West 203 234 3,600 2,600 Climbing FlightAware
Sat 06:42:32 PM 40.6370 -74.2430 337° Northwest 204 235 4,200 2,250 Climbing FlightAware
Sat 06:43:02 PM 40.6660 -74.2340 13° North 229 264 5,100 1,500 Climbing FlightAware
Sat 06:43:20 PM 40.6858 -74.2185 31° Northeast 264 304 5,400 1,256 Climbing FlightAware
Sat 06:43:45 PM 40.7128 -74.1962 32° Northeast 280 322 6,000 1,800 Climbing FlightAware
Sat 06:44:20 PM 40.7433 -74.1507 48° Northeast 282 325 7,200 2,588 Climbing FlightAware
Sat 06:44:36 PM 40.7560 -74.1299 51° Northeast 277 319 8,200 2,833 Climbing FlightAware
Sat 06:44:56 PM 40.7733 -74.1025 50° Northeast 291 335 8,900 2,195 Climbing FlightAware
Sat 06:45:17 PM 40.7919 -74.0739 49° Northeast 299 344 9,700 1,579 Climbing FlightAware
Sat 06:45:34 PM 40.8077 -74.0496 49° Northeast 329 379 9,900 400 Climbing FlightAware
Sat 06:45:47 PM 40.8214 -74.0283 50° Northeast 353 406 9,900  Level FlightAware
Sat 06:45:52 PM 40.8264 -74.0203 50° Northeast 357 411 9,900  Level FlightAware
Sat 06:46:02 PM 40.8372 -74.0031 50° Northeast 360 414 9,900  Level FlightAware
Sat 06:46:07 PM 40.8430 -73.9940 50° Northeast 361 415 9,900  Level FlightAware
Sat 06:46:23 PM 40.8597 -73.9674 50° Northeast 363 418 9,900  Level FlightAware
Sat 06:46:25 PM 40.8614 -73.9646 51° Northeast 361 415 9,900  Level FlightAware
Sat 06:46:39 PM 40.8764 -73.9407 50° Northeast 364 419 9,900  Level FlightAware
Sat 06:46:44 PM 40.8820 -73.9318 50° Northeast 364 419 9,900  Level FlightAware
Sat 06:46:54 PM 40.8930 -73.9141 51° Northeast 366 421 9,900  Level FlightAware
Sat 06:47:00 PM 40.8992 -73.9045 49° Northeast 369 425 9,900 750 Level FlightAware
Sat 06:47:26 PM 40.9284 -73.8580 50° Northeast 366 421 10,300 1,233 Climbing FlightAware
Sat 06:48:13 PM 40.9814 -73.7739 50° Northeast 373 429 11,400 1,744 Climbing FlightAware
Sat 06:48:52 PM 41.0220 -73.7100 50° Northeast 402 463 12,800 2,235 Climbing FlightAware
Sat 06:49:04 PM 41.0405 -73.6797 51° Northeast 400 460 13,300 2,188 Climbing FlightAware
Sat 06:50:17 PM 41.1300 -73.5360 50° Northeast 434 499 15,900 1,932 Climbing FlightAware
Sat 06:51:02 PM 41.1870 -73.4440 51° Northeast 450 518 17,100 1,800 Climbing FlightAware
Sat 06:51:47 PM 41.2360 -73.3440 57° Northeast 459 528 18,600 2,096 Climbing FlightAware
Sat 06:52:25 PM 41.2861 -73.2423 57° Northeast 467 537 20,000 1,865 Climbing FlightAware
Sat 06:53:01 PM 41.3306 -73.1547 56° Northeast 483 556 20,900 1,629 Climbing FlightAware
Sat 06:53:35 PM 41.3747 -73.0682 56° Northeast 492 566 21,900 1,629 Climbing FlightAware
Sat 06:54:11 PM 41.4212 -72.9766 56° Northeast 504 580 22,800 1,458 Climbing FlightAware
Sat 06:55:22 PM 41.5110 -72.7990 56° Northeast 519 597 24,500 1,345 Climbing FlightAware
Sat 06:56:07 PM 41.5740 -72.6730 56° Northeast 535 616 25,400 1,056 Climbing FlightAware
Sat 06:56:42 PM 41.6100 -72.6000 57° Northeast 26,100 975 Climbing FlightAware
Sat 06:57:27 PM 41.6780 -72.4580 57° Northeast 537 618 26,700 933 Climbing FlightAware
Sat 06:58:12 PM 41.7500 -72.3240 54° Northeast 580 667 27,500 1,000 Climbing FlightAware
Sat 06:58:57 PM 41.8320 -72.2110 46° Northeast 596 686 28,200 918 Climbing FlightAware
Sat 06:59:37 PM 41.9160 -72.1120 41° Northeast 604 695 28,800 975 Climbing FlightAware
Sat 07:00:17 PM 42.0060 -72.0050 41° Northeast 616 709 29,500 1,125 Climbing FlightAware
Sat 07:00:57 PM 42.0920 -71.9020 42° Northeast 620 713 30,300 1,271 Climbing FlightAware
Sat 07:01:42 PM 42.1920 -71.7830 41° Northeast 617 710 31,300 1,467 Climbing FlightAware
Sat 07:02:27 PM 42.2850 -71.6720 41° Northeast 609 701 32,500 1,500 Climbing FlightAware
Sat 07:03:02 PM 42.3600 -71.5820 42° Northeast 605 696 33,300 1,350 Climbing FlightAware
Sat 07:03:47 PM 42.4520 -71.4710 42° Northeast 601 692 34,300 1,133 Climbing FlightAware
Sat 07:04:32 PM 42.5480 -71.3550 42° Northeast 601 692 35,000 494 Climbing FlightAware
Sat 07:05:12 PM 42.6310 -71.2530 42° Northeast 606 697 35,000  Level FlightAware
Sat 07:05:57 PM 42.7230 -71.1410 42° Northeast 606 697 35,000  Level FlightAware
Sat 07:06:37 PM 42.8040 -71.0420 42° Northeast 603 694 35,000  Level FlightAware
Sat 07:07:17 PM 42.8880 -70.9390 42° Northeast 601 692 35,000  Level FlightAware
Sat 07:08:02 PM 42.9810 -70.8230 42° Northeast 598 688 35,000  Level FlightAware
Sat 07:08:42 PM 43.0650 -70.7200 42° Northeast 598 688 35,000  Level FlightAware
Sat 07:09:27 PM 43.1550 -70.6080 42° Northeast 597 687 35,000  Level FlightAware
Sat 07:10:07 PM 43.2340 -70.5080 43° Northeast 598 688 35,000  Level FlightAware
Sat 07:10:47 PM 43.3180 -70.4030 42° Northeast 598 688 35,000  Level FlightAware
Sat 07:11:32 PM 43.4060 -70.2920 42° Northeast 600 690 35,000  Level FlightAware
Sat 07:12:12 PM 43.4940 -70.1820 42° Northeast 602 693 35,000  Level FlightAware
Sat 07:12:52 PM 43.5750 -70.0790 43° Northeast 605 696 35,000  Level FlightAware
Sat 07:13:37 PM 43.6660 -69.9620 43° Northeast 609 701 35,000  Level FlightAware
Sat 07:14:17 PM 43.7480 -69.8570 43° Northeast 612 704 35,000  Level FlightAware
Sat 07:15:02 PM 43.8440 -69.7330 43° Northeast 613 705 35,000  Level FlightAware
Sat 07:15:42 PM 43.9280 -69.6250 43° Northeast 614 707 35,000  Level FlightAware
Sat 07:16:27 PM 44.0170 -69.5100 43° Northeast 615 708 35,000  Level FlightAware
Sat 07:17:07 PM 44.1000 -69.4010 43° Northeast 614 707 35,000  Level FlightAware
Sat 07:17:47 PM 44.1840 -69.2920 43° Northeast 615 708 35,000  Level FlightAware
Sat 07:18:32 PM 44.2760 -69.1710 43° Northeast 615 708 35,000  Level FlightAware
Sat 07:19:07 PM 44.3440 -69.0800 44° Northeast 615 708 35,000  Level FlightAware
Sat 07:19:52 PM 44.4450 -68.9470 43° Northeast 614 707 35,000  Level FlightAware
Sat 07:20:37 PM 44.5350 -68.8260 44° Northeast 613 705 35,000  Level FlightAware
Sat 07:21:17 PM 44.6170 -68.7170 43° Northeast 613 705 35,000  Level FlightAware
Sat 07:22:02 PM 44.7100 -68.5920 44° Northeast 611 703 35,000  Level FlightAware
Sat 07:22:42 PM 44.7870 -68.4880 44° Northeast 611 703 35,000  Level FlightAware
Sat 07:23:27 PM 44.8810 -68.3610 44° Northeast 610 702 35,000  Level FlightAware
Sat 07:24:07 PM 44.9620 -68.2510 44° Northeast 609 701 35,000  Level FlightAware
Sat 07:24:47 PM 45.0440 -68.1390 44° Northeast 608 700 35,000  Level FlightAware
Sat 07:25:32 PM 45.1360 -68.0130 44° Northeast 608 700 35,000  Level FlightAware
Sat 07:26:12 PM 45.2140 -67.9060 44° Northeast 607 699 35,000  Level FlightAware
Sat 07:26:52 PM 45.2960 -67.7920 44° Northeast 607 699 35,000  Level FlightAware
Sat 07:27:37 PM 45.3910 -67.6760 41° Northeast 607 699 35,000  Level FlightAware
Sat 07:28:32 PM 45.5060 -67.5470 38° Northeast 600 690 35,000  Level FlightAware
Sat 07:29:17 PM 45.6050 -67.4370 38° Northeast 608 700 35,000  Level FlightAware
Sat 07:29:57 PM 45.6940 -67.3380 38° Northeast 601 692 35,000  Level FlightAware
Sat 07:30:37 PM 45.7820 -67.2400 38° Northeast 601 692 35,000  Level FlightAware
Sat 07:31:22 PM 45.8820 -67.1260 38° Northeast 601 692 35,000  Level FlightAware
Sat 07:32:02 PM 45.9670 -67.0300 38° Northeast 600 690 35,000  Level FlightAware
Sat 07:32:42 PM 46.0640 -66.9210 38° Northeast 605 696 35,000  Level FlightAware
Sat 07:33:27 PM 46.1640 -66.8070 38° Northeast 605 696 35,000  Level FlightAware
Sat 07:34:07 PM 46.2510 -66.7060 39° Northeast 606 697 35,000  Level FlightAware
Sat 07:34:42 PM 46.3190 -66.6300 38° Northeast 606 697 35,000  Level FlightAware
Sat 07:35:32 PM 46.4130 -66.5240 38° Northeast 606 697 35,000  Level FlightAware
Sat 07:36:12 PM 46.4880 -66.4380 38° Northeast 606 697 35,000  Level FlightAware
Sat 07:36:52 PM 46.5630 -66.3530 38° Northeast 606 697 35,000  Level FlightAware
Sat 07:37:32 PM 46.6380 -66.2680 38° Northeast 606 697 35,000  Level FlightAware
Sat 07:38:02 PM 46.6940 -66.2040 38° Northeast 606 697 35,000  Level FlightAware
Sat 07:38:42 PM 46.7690 -66.1180 38° Northeast 606 697 35,000  Level FlightAware
Sat 07:39:32 PM 46.8630 -66.0110 38° Northeast 606 697 35,000  Level FlightAware
Sat 07:40:12 PM 46.9380 -65.9250 38° Northeast 606 697 35,000  Level FlightAware
Sat 07:40:52 PM 47.0140 -65.8390 38° Northeast 606 697 35,000  Level FlightAware
Sat 07:41:32 PM 47.0890 -65.7530 38° Northeast 606 697 35,000  Level FlightAware
Sat 07:42:12 PM 47.1640 -65.6660 38° Northeast 606 697 35,000  Level FlightAware
Sat 07:43:02 PM 47.2580 -65.5580 38° Northeast 606 697 35,000  Level FlightAware
Sat 07:43:42 PM 47.3330 -65.4720 38° Northeast 606 697 35,000  Level FlightAware
Sat 07:43:59 PM 47.5333 -65.1667 38° Northeast 610 702 35,000  Level Gander Center
Sat 07:44:34 PM 47.6167 -65.1000 28° Northeast 610 702 35,000  Level Moncton Center
Sat 07:45:34 PM 47.7333 -64.9167 47° Northeast 610 702 35,000  Level Moncton Center
Sat 07:46:34 PM 47.8667 -64.7500 40° Northeast 610 702 35,000  Level Moncton Center
Sat 07:47:34 PM 47.9833 -64.6000 41° Northeast 610 702 35,000  Level Moncton Center
Sat 07:48:34 PM 48.1167 -64.4500 37° Northeast 600 690 35,000  Level Moncton Center
Sat 07:49:34 PM 48.2500 -64.2667 42° Northeast 610 702 35,000  Level Moncton Center
Sat 07:50:34 PM 48.3833 -64.1167 37° Northeast 610 702 35,000  Level Moncton Center
Sat 07:51:34 PM 48.5167 -63.9500 40° Northeast 610 702 35,000  Level Moncton Center
Sat 07:52:34 PM 48.6333 -63.7667 46° Northeast 610 702 35,000  Level Moncton Center
Sat 07:53:34 PM 48.7667 -63.6167 37° Northeast 610 702 35,000  Level Moncton Center
Sat 07:54:34 PM 48.9000 -63.4333 42° Northeast 610 702 35,000  Level Moncton Center
Sat 07:54:59 PM 48.9500 -63.3667 41° Northeast 610 702 35,000  Level Gander Center
Sat 07:55:59 PM 49.0833 -63.2000 39° Northeast 600 690 35,000  Level Gander Center
Sat 07:56:34 PM 49.1500 -63.0833 49° Northeast 620 713 35,000  Level Moncton Center
Sat 07:57:34 PM 49.2833 -62.9167 39° Northeast 610 702 35,000  Level Moncton Center
Sat 07:58:34 PM 49.4167 -62.7500 39° Northeast 610 702 35,000  Level Moncton Center
Sat 07:59:34 PM 49.5500 -62.5667 42° Northeast 610 702 35,000  Level Moncton Center
Sat 08:00:59 PM 49.7167 -62.3167 44° Northeast 600 690 35,000  Level Gander Center
Sat 08:01:59 PM 49.8500 -62.1667 36° Northeast 620 713 35,000  Level Gander Center
Sat 08:02:59 PM 49.9667 -61.9500 50° Northeast 620 713 35,000  Level Gander Center
Sat 08:03:34 PM 50.0500 -61.8667 33° Northeast 620 713 35,000  Level Moncton Center
Sat 08:04:34 PM 50.1667 -61.6833 45° Northeast 610 702 35,000  Level Moncton Center
Sat 08:04:59 PM 50.2333 -61.6000 39° Northeast 620 713 35,000  Level Gander Center
Sat 08:05:59 PM 50.3333 -61.4333 47° Northeast 600 690 35,000  Level Gander Center
Sat 08:06:59 PM 50.4667 -61.2500 41° Northeast 630 725 35,000  Level Gander Center
Sat 08:07:59 PM 50.6000 -61.0667 41° Northeast 610 702 35,000 -50 Level Gander Center
Sat 08:08:59 PM 50.7167 -60.8833 45° Northeast 610 702 34,900  Descending Gander Center
Sat 08:09:59 PM 50.8500 -60.7000 41° Northeast 610 702 35,000 50 Climbing Gander Center
Sat 08:10:59 PM 50.9833 -60.5167 41° Northeast 610 702 35,000  Level Gander Center
Sat 08:11:59 PM 51.1000 -60.3167 47° Northeast 600 690 35,000  Level Gander Center
Sat 08:12:59 PM 51.2167 -60.1333 45° Northeast 610 702 35,000  Level Gander Center
Sat 08:13:34 PM 51.2833 -60.0333 43° Northeast 600 690 35,000  Level Moncton Center
Sat 08:14:34 PM 51.4167 -59.8333 43° Northeast 600 690 35,000  Level Moncton Center
Sat 08:15:34 PM 51.5167 -59.6333 51° Northeast 610 702 35,000  Level Moncton Center
Sat 08:15:59 PM 51.5667 -59.5333 51° Northeast 600 690 35,000  Level Gander Center
Sat 08:16:39 PM 51.6333 -59.4167 47° Northeast 600 690 35,000  Level Gander Center
Sat 08:16:59 PM 51.6667 -59.3333 57° Northeast 600 690 35,000  Level Gander Center
Sat 08:17:59 PM 51.7833 -59.1500 44° Northeast 610 702 35,000  Level Gander Center
Sat 08:18:59 PM 51.9000 -58.9167 51° Northeast 600 690 35,000  Level Gander Center
Sat 08:19:59 PM 52.0000 -58.7333 48° Northeast 600 690 35,000  Level Gander Center
Sat 08:20:59 PM 52.1167 -58.5333 46° Northeast 600 690 35,000  Level Gander Center
Sat 08:22:39 PM 52.2833 -58.1667 53° Northeast 610 702 35,000  Level Gander Center
Sat 08:22:59 PM 52.3333 -58.1000 39° Northeast 610 702 35,000  Level Gander Center
Sat 08:23:59 PM 52.4500 -57.8833 48° Northeast 600 690 35,000  Level Gander Center
Sat 08:24:59 PM 52.5333 -57.6833 56° Northeast 610 702 35,000  Level Gander Center
Sat 08:25:34 PM 52.6000 -57.5667 47° Northeast 600 690 35,000  Level Moncton Center
Sat 08:26:34 PM 52.7167 -57.3167 52° Northeast 600 690 35,000  Level Moncton Center
Sat 08:27:34 PM 52.8167 -57.1167 50° Northeast 600 690 35,000  Level Moncton Center
Sat 08:28:34 PM 52.9333 -56.9000 48° Northeast 600 690 35,000  Level Moncton Center
Sat 08:28:59 PM 52.9833 -56.8167 45° Northeast 600 690 35,000  Level Gander Center
Sat 08:29:59 PM 53.0667 -56.6000 57° Northeast 600 690 35,000  Level Gander Center
Sat 08:30:34 PM 53.1333 -56.4667 50° Northeast 600 690 35,000  Level Moncton Center
Sat 08:30:59 PM 53.1833 -56.3667 50° Northeast 590 679 35,000  Level Gander Center
Sat 08:31:59 PM 53.2833 -56.1667 50° Northeast 600 690 35,000  Level Gander Center
Sat 08:32:34 PM 53.3333 -56.0500 54° Northeast 590 679 35,000  Level Moncton Center
Sat 08:33:34 PM 53.4500 -55.8167 50° Northeast 600 690 35,000  Level Moncton Center
Sat 08:33:59 PM 53.4833 -55.7500 50° Northeast 590 679 35,000  Level Gander Center
Sat 08:34:34 PM 53.5500 -55.6000 53° Northeast 590 679 35,000  Level Moncton Center
Sat 08:35:34 PM 53.6500 -55.3833 52° Northeast 590 679 35,000  Level Moncton Center
Sat 08:35:59 PM 53.7000 -55.2833 50° Northeast 600 690 35,000  Level Gander Center
Sat 08:36:59 PM 53.7833 -55.0833 55° Northeast 580 667 35,000  Level Gander Center
Sat 08:37:59 PM 53.8833 -54.8333 56° Northeast 590 679 35,000  Level Gander Center
Sat 08:38:59 PM 53.9333 -54.6000 70° East 580 667 35,000  Level Gander Center
Sat 08:39:59 PM 53.9667 -54.3333 78° East 580 667 35,000  Level Gander Center
Sat 08:40:59 PM 54.0333 -54.0667 67° East 580 667 35,000  Level Gander Center
Sat 08:41:59 PM 54.0833 -53.8000 72° East 590 679 35,000  Level Gander Center
Sat 08:42:59 PM 54.1500 -53.5667 64° Northeast 590 679 35,000  Level Gander Center
Sat 08:43:59 PM 54.2167 -53.3000 67° East 590 679 35,000  Level Gander Center
Sat 08:44:59 PM 54.2667 -53.0333 72° East 590 679 35,000  Level Gander Center
Sat 08:46:49 PM 54.3833 -52.5667 67° East 280 322 35,000  Level Gander Center
Sat 08:47:31 PM 54.4167 -52.4167 69° East 470 541 35,000  Level Gander Center
Sat 08:48:31 PM 54.4833 -52.1833 64° Northeast 580 667 35,000  Level Gander Center
Sat 08:48:49 PM 54.4833 -52.0500 90° East 580 667 35,000  Level Gander Center
Sat 08:49:49 PM 54.5500 -51.8167 64° Northeast 570 656 35,000  Level Gander Center
Sat 08:50:31 PM 54.6333 -51.6500 49° Northeast 580 667 35,000  Level Gander Center
Sat 08:51:49 PM 54.6833 -51.2833 77° East 580 667 35,000  Level Gander Center
Sat 08:52:31 PM 54.6833 -51.1167 90° East 570 656 35,000  Level Gander Center
Sat 08:53:31 PM 54.7500 -50.8667 65° Northeast 570 656 35,000  Level Gander Center
Sat 08:53:49 PM 54.7667 -50.7667 74° East 570 656 35,000  Level Gander Center
Sat 08:54:49 PM 54.8500 -50.5167 60° Northeast 570 656 35,000  Level Gander Center
Sat 08:56:31 PM 54.9167 -50.0833 75° East 570 656 35,000  Level Gander Center
Sat 08:58:00 PM 55.0327 -49.7695 76° East  Level FlightAware
Sat 09:05:00 PM 55.2633 -48.0353 76° East  Level FlightAware
Sat 09:06:00 PM 55.2942 -47.7860 78° East  Level FlightAware
Sat 09:07:00 PM 55.3246 -47.5362 78° East  Level FlightAware
Sat 09:08:00 PM 55.3545 -47.2861 78° East  Level FlightAware
Sat 09:09:00 PM 55.3832 -47.0354 79° East  Level FlightAware
Sat 09:10:00 PM 55.4107 -46.7840 79° East  Level FlightAware
Sat 09:11:00 PM 55.4378 -46.5324 79° East  Level FlightAware
Sat 09:12:00 PM 55.4643 -46.2804 79° East  Level FlightAware
Sat 09:13:00 PM 55.4903 -46.0280 80° East  Level FlightAware
Sat 09:14:00 PM 55.5158 -45.7754 80° East  Level FlightAware
Sat 09:15:00 PM 55.5428 -45.5230 79° East  Level FlightAware
Sat 09:16:00 PM 55.5694 -45.2704 79° East  Level FlightAware
Sat 09:17:00 PM 55.5955 -45.0174 80° East  Level FlightAware
Sat 09:18:00 PM 55.6211 -44.7641 80° East  Level FlightAware
Sat 09:19:00 PM 55.6461 -44.5104 80° East  Level FlightAware
Sat 09:20:00 PM 55.6706 -44.2565 80° East  Level FlightAware
Sat 09:21:00 PM 55.6946 -44.0022 80° East  Level FlightAware
Sat 09:22:00 PM 55.7181 -43.7476 81° East  Level FlightAware
Sat 09:23:00 PM 55.7410 -43.4927 81° East  Level FlightAware
Sat 09:24:00 PM 55.7634 -43.2375 81° East  Level FlightAware
Sat 09:25:00 PM 55.7853 -42.9820 81° East  Level FlightAware
Sat 09:26:00 PM 55.8066 -42.7262 81° East  Level FlightAware
Sat 09:27:00 PM 55.8274 -42.4702 82° East  Level FlightAware
Sat 09:28:00 PM 55.8477 -42.2139 82° East  Level FlightAware
Sat 09:29:00 PM 55.8675 -41.9573 82° East  Level FlightAware
Sat 09:30:00 PM 55.8867 -41.7005 82° East  Level FlightAware
Sat 09:31:00 PM 55.9054 -41.4434 83° East  Level FlightAware
Sat 09:32:00 PM 55.9235 -41.1861 83° East  Level FlightAware
Sat 09:33:00 PM 55.9411 -40.9285 83° East  Level FlightAware
Sat 09:34:00 PM 55.9582 -40.6707 83° East  Level FlightAware
Sat 09:35:00 PM 55.9747 -40.4127 83° East  Level FlightAware
Sat 09:36:00 PM 55.9907 -40.1544 84° East  Level FlightAware
Sat 09:37:00 PM 56.0042 -39.8957 86° East  Level FlightAware
Sat 09:38:00 PM 56.0142 -39.6363 86° East  Level FlightAware
Sat 09:39:00 PM 56.0237 -39.3768 86° East  Level FlightAware
Sat 09:40:00 PM 56.0326 -39.1172 86° East  Level FlightAware
Sat 09:41:00 PM 56.0410 -38.8574 87° East  Level FlightAware
Sat 09:42:00 PM 56.0489 -38.5975 87° East  Level FlightAware
Sat 09:43:00 PM 56.0561 -38.3376 87° East  Level FlightAware
Sat 09:44:00 PM 56.0629 -38.0775 87° East  Level FlightAware
Sat 09:45:00 PM 56.0691 -37.8174 87° East  Level FlightAware
Sat 09:46:00 PM 56.0748 -37.5572 88° East  Level FlightAware
Sat 09:47:00 PM 56.0799 -37.2969 88° East  Level FlightAware
Sat 09:48:00 PM 56.0844 -37.0365 88° East  Level FlightAware
Sat 09:49:00 PM 56.0884 -36.7761 88° East  Level FlightAware
Sat 09:50:00 PM 56.0919 -36.5156 89° East  Level FlightAware
Sat 09:51:00 PM 56.0948 -36.2551 89° East  Level FlightAware
Sat 09:52:00 PM 56.0972 -35.9946 89° East  Level FlightAware
Sat 09:53:00 PM 56.0990 -35.7340 89° East  Level FlightAware
Sat 09:54:00 PM 56.1003 -35.4734 89° East  Level FlightAware
Sat 09:55:00 PM 56.1010 -35.2128 90° East  Level FlightAware
Sat 09:56:00 PM 56.1012 -34.9522 90° East  Level FlightAware
Sat 09:57:00 PM 56.1008 -34.6916 90° East  Level FlightAware
Sat 09:58:00 PM 56.0999 -34.4310 90° East  Level FlightAware
Sat 09:59:00 PM 56.0984 -34.1704 90° East  Level FlightAware
Sat 10:00:00 PM 56.0964 -33.9098 91° East  Level FlightAware
Sat 10:01:00 PM 56.0938 -33.6493 91° East  Level FlightAware
Sat 10:02:00 PM 56.0907 -33.3888 91° East  Level FlightAware
Sat 10:03:00 PM 56.0870 -33.1283 91° East  Level FlightAware
Sat 10:04:00 PM 56.0828 -32.8679 92° East  Level FlightAware
Sat 10:05:00 PM 56.0781 -32.6076 92° East  Level FlightAware
Sat 10:06:00 PM 56.0728 -32.3473 92° East  Level FlightAware
Sat 10:07:00 PM 56.0669 -32.0871 92° East  Level FlightAware
Sat 10:08:00 PM 56.0605 -31.8270 92° East  Level FlightAware
Sat 10:09:00 PM 56.0536 -31.5670 93° East  Level FlightAware
Sat 10:10:00 PM 56.0461 -31.3071 93° East  Level FlightAware
Sat 10:11:00 PM 56.0380 -31.0473 93° East  Level FlightAware
Sat 10:12:00 PM 56.0294 -30.7875 93° East  Level FlightAware
Sat 10:13:00 PM 56.0203 -30.5280 93° East  Level FlightAware
Sat 10:14:00 PM 56.0106 -30.2685 94° East  Level FlightAware
Sat 10:15:00 PM 56.0004 -30.0092 94° East  Level FlightAware
Sat 10:16:00 PM 55.9854 -29.7507 96° East  Level FlightAware
Sat 10:17:00 PM 55.9698 -29.4924 96° East  Level FlightAware
Sat 10:18:00 PM 55.9536 -29.2344 96° East  Level FlightAware
Sat 10:19:00 PM 55.9369 -28.9765 96° East  Level FlightAware
Sat 10:20:00 PM 55.9196 -28.7189 97° East  Level FlightAware
Sat 10:21:00 PM 55.9018 -28.4615 97° East  Level FlightAware
Sat 10:22:00 PM 55.8835 -28.2044 97° East  Level FlightAware
Sat 10:23:00 PM 55.8647 -27.9475 97° East  Level FlightAware
Sat 10:24:00 PM 55.8452 -27.6908 98° East  Level FlightAware
Sat 10:25:00 PM 55.8253 -27.4345 98° East  Level FlightAware
Sat 10:26:00 PM 55.8049 -27.1783 98° East  Level FlightAware
Sat 10:27:00 PM 55.7839 -26.9225 98° East  Level FlightAware
Sat 10:28:00 PM 55.7623 -26.6669 98° East  Level FlightAware
Sat 10:29:00 PM 55.7403 -26.4116 99° East  Level FlightAware
Sat 10:30:00 PM 55.7177 -26.1566 99° East  Level FlightAware
Sat 10:31:00 PM 55.6946 -25.9020 99° East  Level FlightAware
Sat 10:32:00 PM 55.6709 -25.6476 99° East  Level FlightAware
Sat 10:33:00 PM 55.6468 -25.3935 99° East  Level FlightAware
Sat 10:34:00 PM 55.6221 -25.1397 100° East  Level FlightAware
Sat 10:35:00 PM 55.5969 -24.8863 100° East  Level FlightAware
Sat 10:36:00 PM 55.5711 -24.6332 100° East  Level FlightAware
Sat 10:37:00 PM 55.5449 -24.3804 100° East  Level FlightAware
Sat 10:38:00 PM 55.5181 -24.1280 101° East  Level FlightAware
Sat 10:39:00 PM 55.4908 -23.8759 101° East  Level FlightAware
Sat 10:40:00 PM 55.4630 -23.6241 101° East  Level FlightAware
Sat 10:41:00 PM 55.4347 -23.3728 101° East  Level FlightAware
Sat 10:42:00 PM 55.4058 -23.1218 101° East  Level FlightAware
Sat 10:43:00 PM 55.3765 -22.8711 102° East  Level FlightAware
Sat 10:44:00 PM 55.3466 -22.6208 102° East  Level FlightAware
Sat 10:45:00 PM 55.3162 -22.3710 102° East  Level FlightAware
Sat 10:46:00 PM 55.2853 -22.1215 102° East  Level FlightAware
Sat 10:47:00 PM 55.2539 -21.8724 102° East  Level FlightAware
Sat 10:48:00 PM 55.2220 -21.6236 103° East  Level FlightAware
Sat 10:49:00 PM 55.1896 -21.3753 103° East  Level FlightAware
Sat 10:50:00 PM 55.1567 -21.1274 103° East  Level FlightAware
Sat 10:51:00 PM 55.1233 -20.8799 103° East  Level FlightAware
Sat 10:52:00 PM 55.0894 -20.6329 103° East  Level FlightAware
Sat 10:53:00 PM 55.0550 -20.3862 104° East  Level FlightAware
Sat 10:54:00 PM 55.0201 -20.1400 104° East  Level FlightAware
Sat 10:55:00 PM 54.9902 -19.8922 99° East  Level FlightAware
Sat 10:56:00 PM 54.9670 -19.6421 99° East  Level FlightAware
Sat 10:57:00 PM 54.9434 -19.3924 99° East  Level FlightAware
Sat 10:58:00 PM 54.9192 -19.1429 99° East  Level FlightAware
Sat 10:59:00 PM 54.8945 -18.8937 100° East  Level FlightAware
Sat 11:00:00 PM 54.8693 -18.6449 100° East  Level FlightAware
Sat 11:01:00 PM 54.8436 -18.3964 100° East  Level FlightAware
Sat 11:02:00 PM 54.8174 -18.1481 100° East  Level FlightAware
Sat 11:03:00 PM 54.7907 -17.9003 100° East  Level FlightAware
Sat 11:04:00 PM 54.7635 -17.6527 101° East  Level FlightAware
Sat 11:05:00 PM 54.7358 -17.4055 101° East  Level FlightAware
Sat 11:06:00 PM 54.7076 -17.1586 101° East  Level FlightAware
Sat 11:07:00 PM 54.6788 -16.9121 101° East  Level FlightAware
Sat 11:08:00 PM 54.6496 -16.6659 101° East  Level FlightAware
Sat 11:09:00 PM 54.6199 -16.4200 102° East  Level FlightAware
Sat 11:10:00 PM 54.5897 -16.1746 102° East  Level FlightAware
Sat 11:11:00 PM 54.5590 -15.9295 102° East  Level FlightAware
Sat 11:12:00 PM 54.5278 -15.6847 102° East  Level FlightAware
Sat 11:13:00 PM 54.4961 -15.4404 102° East  Level FlightAware
Sat 11:14:00 PM 54.4639 -15.1964 103° East  Level FlightAware
Sat 11:14:02 PM 53.9540 -14.1340 103° East 516 594 35,000  Level FlightAware
Sat 11:14:42 PM 53.9410 -13.9800 98° East 514 592 35,800 1,200 Climbing FlightAware
Sat 11:15:22 PM 53.9250 -13.8170 99° East 515 593 36,600 1,271 Climbing FlightAware
Sat 11:16:07 PM 53.9060 -13.6340 100° East 514 592 37,600 933 Climbing FlightAware
Sat 11:16:52 PM 53.8880 -13.4570 100° East 517 595 38,000 282 Climbing FlightAware
Sat 11:17:32 PM 53.8710 -13.2950 100° East 521 600 38,000  Level FlightAware
Sat 11:18:17 PM 53.8530 -13.1230 100° East 520 598 38,000  Level FlightAware
Sat 11:18:57 PM 53.8350 -12.9560 100° East 518 596 38,000  Level FlightAware
Sat 11:19:42 PM 53.8160 -12.7810 100° East 519 597 38,000  Level FlightAware
Sat 11:20:17 PM 53.8010 -12.6480 101° East 519 597 38,000  Level FlightAware
Sat 11:21:02 PM 53.7800 -12.4590 101° East 519 597 38,000  Level FlightAware
Sat 11:21:47 PM 53.7600 -12.2770 100° East 518 596 38,000  Level FlightAware
Sat 11:23:22 PM 53.7180 -11.9180 101° East 516 594 38,000  Level FlightAware
Sat 11:24:32 PM 53.6850 -11.6420 101° East 515 593 38,000  Level FlightAware
Sat 11:25:27 PM 53.6590 -11.4270 101° East 511 588 38,000  Level FlightAware
Sat 11:26:12 PM 53.6370 -11.2490 102° East 510 587 38,000  Level FlightAware
Sat 11:26:52 PM 53.6180 -11.0960 102° East 508 585 38,000  Level FlightAware
Sat 11:27:37 PM 53.5960 -10.9190 102° East 506 582 38,000  Level FlightAware
Sat 11:28:17 PM 53.5770 -10.7690 102° East 507 583 38,000  Level FlightAware
Sat 11:29:02 PM 53.5540 -10.5960 103° East 505 581 38,000  Level FlightAware
Sat 11:29:42 PM 53.5340 -10.4400 102° East 503 579 38,000  Level FlightAware
Sat 11:30:22 PM 53.5140 -10.2900 103° East 503 579 38,000  Level FlightAware
Sat 11:31:07 PM 53.4920 -10.1210 102° East 504 580 38,000  Level FlightAware
Sat 11:31:47 PM 53.4700 -9.9650 103° East 503 579 38,000  Level FlightAware
Sat 11:32:32 PM 53.4470 -9.7960 103° East 502 578 38,000  Level FlightAware
Sat 11:33:12 PM 53.4260 -9.6450 103° East 503 579 38,000  Level FlightAware
Sat 11:33:52 PM 53.4060 -9.4970 103° East 503 579 38,000  Level FlightAware
Sat 11:34:37 PM 53.3810 -9.3190 103° East 503 579 38,000  Level FlightAware
Sat 11:35:17 PM 53.3590 -9.1700 104° East 504 580 38,000 -1,169 Level FlightAware
Sat 11:35:54 PM 53.3279 -8.9924 104° East 456 525 36,500  Descending FlightAware
Sat 11:35:57 PM 53.3370 -9.0180 104° East 501 577 38,000  Climbing FlightAware
Sat 11:36:12 PM 53.3179 -8.9245 104° East 460 529 36,500 -2,727 Descending FlightAware
Sat 11:36:30 PM 53.3079 -8.8566 104° East 462 532 36,500 3,000 Level FlightAware
Sat 11:36:42 PM 53.3130 -8.8490 104° East 500 575 38,000  Climbing FlightAware
Sat 11:37:00 PM 53.2913 -8.7439 104° East 462 532 36,500  Descending FlightAware
Sat 11:37:22 PM 53.2910 -8.7010 104° East 499 574 38,000  Climbing FlightAware
Sat 11:37:24 PM 53.2781 -8.6540 104° East 460 529 36,500 -4,500 Descending FlightAware
Sat 11:37:42 PM 53.2681 -8.5868 104° East 462 532 36,500  Level FlightAware
Sat 11:38:00 PM 53.2580 -8.5196 104° East 460 529 36,500 3,600 Level FlightAware
Sat 11:38:07 PM 53.2650 -8.5300 104° East 498 573 38,000  Climbing FlightAware
Sat 11:38:24 PM 53.2445 -8.4303 104° East 462 532 36,500  Descending FlightAware
Sat 11:38:47 PM 53.2430 -8.3840 104° East 496 571 38,000  Climbing FlightAware
Sat 11:38:48 PM 53.2310 -8.3405 104° East 464 534 36,500 -4,737 Descending FlightAware
Sat 11:39:06 PM 53.2208 -8.2737 104° East 466 536 36,500  Level FlightAware
Sat 11:39:24 PM 53.2107 -8.2070 104° East 464 534 36,500 3,462 Level FlightAware
Sat 11:39:32 PM 53.2170 -8.2140 104° East 494 568 38,000  Climbing FlightAware
Sat 11:39:48 PM 53.1973 -8.1180 104° East 460 529 36,500 -2,647 Descending FlightAware
Sat 11:40:06 PM 53.1871 -8.0516 104° East 460 529 36,500 3,750 Level FlightAware
Sat 11:40:12 PM 53.1940 -8.0650 104° East 493 567 38,000  Climbing FlightAware
Sat 11:40:30 PM 53.1733 -7.9633 104° East 458 527 36,500 -2,500 Descending FlightAware
Sat 11:40:48 PM 53.1629 -7.8965 105° East 460 529 36,500 4,091 Level FlightAware
Sat 11:40:52 PM 53.1720 -7.9180 105° East 493 567 38,000  Climbing FlightAware
Sat 11:41:12 PM 53.1492 -7.8085 105° East 460 529 36,500 -2,368 Descending FlightAware
Sat 11:41:30 PM 53.1389 -7.7425 105° East 458 527 36,500 3,600 Level FlightAware
Sat 11:41:37 PM 53.1460 -7.7540 105° East 492 566 38,000  Climbing FlightAware
Sat 11:41:54 PM 53.1250 -7.6545 105° East 458 527 36,500 -2,571 Descending FlightAware
Sat 11:42:12 PM 53.1148 -7.5887 104° East 458 527 36,500 3,913 Level FlightAware
Sat 11:42:17 PM 53.1220 -7.6060 104° East 491 565 38,000  Climbing FlightAware
Sat 11:42:36 PM 53.1008 -7.5011 104° East 456 525 36,500 -2,432 Descending FlightAware
Sat 11:42:54 PM 53.0902 -7.4347 105° East 454 522 36,500 4,286 Level FlightAware
Sat 11:42:57 PM 53.0990 -7.4630 105° East 492 566 38,000  Climbing FlightAware
Sat 11:43:12 PM 53.0798 -7.3699 105° East 454 522 36,500 -2,727 Descending FlightAware
Sat 11:43:30 PM 53.0692 -7.3036 105° East 458 527 36,500 3,000 Level FlightAware
Sat 11:43:42 PM 53.0730 -7.2960 105° East 492 566 38,000  Climbing FlightAware
Sat 11:44:00 PM 53.0516 -7.1944 105° East 458 527 36,500 -2,500 Descending FlightAware
Sat 11:44:18 PM 53.0408 -7.1283 105° East 460 529 36,500 4,091 Level FlightAware
Sat 11:44:22 PM 53.0490 -7.1520 105° East 492 566 38,000  Climbing FlightAware
Sat 11:44:42 PM 53.0267 -7.0412 105° East 458 527 36,500 -2,368 Descending FlightAware
Sat 11:45:00 PM 53.0161 -6.9767 105° East 464 534 36,500 3,600 Level FlightAware
Sat 11:45:07 PM 53.0230 -6.9900 105° East 490 564 38,000  Climbing FlightAware
Sat 11:45:24 PM 53.0017 -6.8901 105° East 464 534 36,500  Descending FlightAware
Sat 11:45:42 PM 53.0010 -6.8610 105° East 488 562 38,000  Climbing FlightAware
Sat 11:46:00 PM 52.9801 -6.7598 105° East 460 529 36,500 -2,093 Descending FlightAware
Sat 11:46:25 PM 52.9656 -6.6729 105° East 458 527 36,500 3,333 Level FlightAware
Sat 11:46:27 PM 52.9740 -6.7000 105° East 487 560 38,000  Climbing FlightAware
Sat 11:46:49 PM 52.9512 -6.5871 105° East 458 527 36,500  Descending FlightAware
Sat 11:47:12 PM 52.9470 -6.5400 105° East 486 559 38,000  Climbing FlightAware
Sat 11:47:13 PM 52.9368 -6.5006 105° East 460 529 36,500 -4,737 Descending FlightAware
Sat 11:47:31 PM 52.9260 -6.4372 105° East 462 532 36,500  Level FlightAware
Sat 11:47:49 PM 52.9151 -6.3731 106° East 464 534 36,500 4,286 Level FlightAware
Sat 11:47:52 PM 52.9230 -6.3960 106° East 484 557 38,000  Climbing FlightAware
Sat 11:48:13 PM 52.9005 -6.2879 106° East 460 529 36,500 -2,308 Descending FlightAware
Sat 11:48:31 PM 52.8896 -6.2242 106° East 462 532 36,500 3,750 Level FlightAware
Sat 11:48:37 PM 52.8960 -6.2380 106° East 481 554 38,000  Climbing FlightAware
Sat 11:49:01 PM 52.8714 -6.1184 106° East 454 522 36,500  Descending FlightAware
Sat 11:49:17 PM 52.8710 -6.0940 106° East 479 551 38,000  Climbing FlightAware
Sat 11:49:37 PM 52.8495 -5.9915 106° East 452 520 36,500 -2,368 Descending FlightAware
Sat 11:49:55 PM 52.8387 -5.9293 106° East 448 516 36,500 3,600 Level FlightAware
Sat 11:50:02 PM 52.8440 -5.9380 106° East 477 549 38,000  Climbing FlightAware
Sat 11:50:19 PM 52.8239 -5.8450 106° East 450 518 36,500 -2,571 Descending FlightAware
Sat 11:50:37 PM 52.8127 -5.7816 106° East 452 520 36,500 3,913 Level FlightAware
Sat 11:50:42 PM 52.8190 -5.7990 106° East 477 549 38,000  Climbing FlightAware
Sat 11:51:07 PM 52.7944 -5.6780 106° East 454 522 36,500  Descending FlightAware
Sat 11:51:22 PM 52.7940 -5.6570 106° East 475 547 38,000  Climbing FlightAware
Sat 11:51:25 PM 52.7832 -5.6148 106° East 452 520 36,500 -6,000 Descending FlightAware
Sat 11:51:37 PM 52.7758 -5.5732 106° East 450 518 36,500  Level FlightAware
Sat 11:52:01 PM 52.7610 -5.4901 106° East 448 516 36,500 3,000 Level FlightAware
Sat 11:52:07 PM 52.7670 -5.5060 106° East 472 543 38,000  Climbing FlightAware
Sat 11:52:25 PM 52.7463 -5.4078 106° East 450 518 36,500 -2,500 Descending FlightAware
Sat 11:52:43 PM 52.7348 -5.3443 107° East 450 518 36,500 4,091 Level FlightAware
Sat 11:52:47 PM 52.7430 -5.3710 107° East 471 542 38,000  Climbing FlightAware
Sat 11:53:07 PM 52.7201 -5.2630 107° East 448 516 36,500  Descending FlightAware
Sat 11:53:22 PM 52.7230 -5.2590 107° East 470 541 38,000  Climbing FlightAware
Sat 11:53:31 PM 52.7051 -5.1804 107° East 450 518 36,500 -6,000 Descending FlightAware
Sat 11:53:37 PM 52.7012 -5.1591 107° East 448 516 36,500  Level FlightAware
Sat 11:53:55 PM 52.6901 -5.0979 107° East 454 522 36,500 2,571 Level FlightAware
Sat 11:54:12 PM 52.6860 -5.0590 107° East 472 543 38,000  Climbing FlightAware
Sat 11:54:13 PM 52.6786 -5.0354 107° East 454 522 36,500  Descending FlightAware
Sat 11:54:20 PM 52.6803 -5.0280 107° East 472 543 38,000  Climbing FlightAware
Sat 11:54:37 PM 52.6635 -4.9531 107° East 454 522 36,500  Descending FlightAware
Sat 11:54:52 PM 52.6620 -4.9300 107° East 472 543 38,000  Climbing FlightAware
Sat 11:55:13 PM 52.6408 -4.8297 107° East 452 520 36,500  Descending FlightAware
Sat 11:55:22 PM 52.6408 -4.8148 107° East 472 543 38,000  Climbing FlightAware
Sat 11:55:37 PM 52.6255 -4.7477 107° East 450 518 36,500  Descending FlightAware
Sat 11:55:52 PM 52.6214 -4.7116 107° East 472 543 38,000  Climbing FlightAware
Sat 11:56:07 PM 52.6063 -4.6452 107° East 448 516 36,500  Descending FlightAware
Sat 11:56:23 PM 52.6019 -4.6064 107° East 471 542 38,000  Climbing FlightAware
Sat 11:56:43 PM 52.5833 -4.5224 107° East 446 513 36,500  Descending FlightAware
Sat 11:56:54 PM 52.5818 -4.5001 107° East 471 542 38,000  Climbing FlightAware
Sat 11:57:13 PM 52.5638 -4.4196 107° East 448 516 36,500  Descending FlightAware
Sat 11:57:25 PM 52.5618 -4.3952 107° East 470 541 38,000  Climbing FlightAware
Sat 11:57:43 PM 52.5445 -4.3174 107° East 450 518 36,500  Descending FlightAware
Sat 11:57:56 PM 52.5419 -4.2905 107° East 471 542 38,000  Climbing FlightAware
Sat 11:58:13 PM 52.5248 -4.2149 107° East 450 518 36,500  Descending FlightAware
Sat 11:58:27 PM 52.5218 -4.1860 107° East 470 541 38,000  Climbing FlightAware
Sat 11:58:44 PM 52.5051 -4.1125 107° East 448 516 36,500  Descending FlightAware
Sat 11:58:57 PM 52.5019 -4.0830 107° East 470 541 38,000  Climbing FlightAware
Sat 11:59:20 PM 52.4815 -3.9905 107° East 448 516 36,500  Descending FlightAware
Sat 11:59:27 PM 52.4820 -3.9807 107° East 470 541 38,000  Climbing FlightAware
Sat 11:59:43 PM 52.4658 -3.9099 107° East 446 513 36,500  Descending FlightAware
Sat 11:59:58 PM 52.4620 -3.8772 107° East 470 541 38,000  Climbing FlightAware
Sun 12:00:14 AM 52.4461 -3.8076 107° East 448 516 36,500  Descending FlightAware
Sun 12:00:29 AM 52.4415 -3.7730 107° East 470 541 38,000  Climbing FlightAware
Sun 12:00:44 AM 52.4260 -3.7063 107° East 448 516 36,500  Descending FlightAware
Sun 12:00:59 AM 52.4216 -3.6717 107° East 470 541 38,000  Climbing FlightAware
Sun 12:01:14 AM 52.4061 -3.6050 107° East 448 516 36,500  Descending FlightAware
Sun 12:01:29 AM 52.4014 -3.5692 107° East 470 541 38,000  Climbing FlightAware
Sun 12:01:50 AM 52.3816 -3.4822 107° East 446 513 36,500  Descending FlightAware
Sun 12:01:59 AM 52.3809 -3.4667 107° East 470 541 38,000  Climbing FlightAware
Sun 12:02:14 AM 52.3656 -3.4020 107° East 444 511 36,500  Descending FlightAware
Sun 12:02:30 AM 52.3602 -3.3630 107° East 470 541 38,000  Climbing FlightAware
Sun 12:02:50 AM 52.3414 -3.2800 107° East 446 513 36,500  Descending FlightAware
Sun 12:03:01 AM 52.3397 -3.2606 107° East 471 542 38,000  Climbing FlightAware
Sun 12:03:20 AM 52.3210 -3.1797 107° East 454 522 36,500  Descending FlightAware
Sun 12:03:31 AM 52.3191 -3.1591 107° East 470 541 38,000  Climbing FlightAware
Sun 12:03:50 AM 52.3005 -3.0789 107° East 448 516 36,500  Descending FlightAware
Sun 12:04:01 AM 52.2987 -3.0579 107° East 469 540 38,000  Climbing FlightAware
Sun 12:04:26 AM 52.2757 -2.9568 107° East 446 513 36,500  Descending FlightAware
Sun 12:04:32 AM 52.2772 -2.9524 107° East 469 540 38,000  Climbing FlightAware
Sun 12:04:50 AM 52.2593 -2.8769 107° East 446 513 36,500 -2,500 Descending FlightAware
Sun 12:05:08 AM 52.2470 -2.8165 108° East 448 516 36,500 4,500 Level FlightAware
Sun 12:05:10 AM 52.2513 -2.8265 108° East 470 541 38,000  Climbing FlightAware
Sun 12:05:26 AM 52.2346 -2.7560 108° East 448 516 36,500  Descending FlightAware
Sun 12:05:41 AM 52.2302 -2.7231 108° East 471 542 38,000  Climbing FlightAware
Sun 12:05:56 AM 52.2135 -2.6540 108° East 448 516 36,500  Descending FlightAware
Sun 12:06:12 AM 52.2089 -2.6208 108° East 470 541 38,000  Climbing FlightAware
Sun 12:06:32 AM 52.1885 -2.5343 108° East 448 516 36,500  Descending FlightAware
Sun 12:06:42 AM 52.1876 -2.5192 108° East 470 541 38,000  Climbing FlightAware
Sun 12:07:03 AM 52.1671 -2.4329 108° East 450 518 36,500  Descending FlightAware
Sun 12:07:13 AM 52.1662 -2.4162 108° East 470 541 38,000  Climbing FlightAware
Sun 12:07:32 AM 52.1463 -2.3342 108° East 452 520 36,500  Descending FlightAware
Sun 12:07:44 AM 52.1440 -2.3108 108° East 469 540 38,000  Climbing FlightAware
Sun 12:08:03 AM 52.1251 -2.2327 108° East 452 520 36,500  Descending FlightAware
Sun 12:08:14 AM 52.1227 -2.2104 108° East 468 539 38,000  Climbing FlightAware
Sun 12:08:33 AM 52.1036 -2.1322 108° East 454 522 36,500  Descending FlightAware
Sun 12:08:45 AM 52.1016 -2.1101 108° East 468 539 38,000  Climbing FlightAware
Sun 12:09:03 AM 52.0826 -2.0335 108° East 456 525 36,500  Descending FlightAware
Sun 12:09:15 AM 52.0802 -2.0097 108° East 466 536 38,000  Climbing FlightAware
Sun 12:09:33 AM 52.0614 -1.9346 108° East 452 520 36,500  Descending FlightAware
Sun 12:09:45 AM 52.0587 -1.9098 108° East 464 534 38,000  Climbing FlightAware
Sun 12:10:03 AM 52.0401 -1.8362 108° East 452 520 36,500  Descending FlightAware
Sun 12:10:16 AM 52.0371 -1.8089 108° East 462 532 38,000  Climbing FlightAware
Sun 12:10:33 AM 52.0188 -1.7369 108° East 444 511 36,500  Descending FlightAware
Sun 12:10:47 AM 52.0155 -1.7091 108° East 461 531 38,000  Climbing FlightAware
Sun 12:11:03 AM 51.9977 -1.6406 108° East 444 511 36,500  Descending FlightAware
Sun 12:11:18 AM 51.9937 -1.6084 108° East 460 529 38,000  Climbing FlightAware
Sun 12:11:33 AM 51.9762 -1.5427 108° East 442 509 36,500  Descending FlightAware
Sun 12:11:48 AM 51.9720 -1.5091 108° East 461 531 38,000  Climbing FlightAware
Sun 12:12:03 AM 51.9547 -1.4448 108° East 440 506 36,500  Descending FlightAware
Sun 12:12:19 AM 51.9502 -1.4099 108° East 461 531 38,000  Climbing FlightAware
Sun 12:12:45 AM 51.9244 -1.3081 108° East 442 509 36,500  Descending FlightAware
Sun 12:12:49 AM 51.9286 -1.3113 108° East 461 531 38,000  Climbing FlightAware
Sun 12:13:09 AM 51.9074 -1.2310 108° East 442 509 36,500  Descending FlightAware
Sun 12:13:20 AM 51.9070 -1.2135 108° East 461 531 38,000  Climbing FlightAware
Sun 12:13:39 AM 51.8857 -1.1346 108° East 442 509 36,500  Descending FlightAware
Sun 12:13:50 AM 51.8852 -1.1158 108° East 462 532 38,000  Climbing FlightAware
Sun 12:14:09 AM 51.8636 -1.0362 108° East 442 509 36,500  Descending FlightAware
Sun 12:14:21 AM 51.8628 -1.0161 108° East 462 532 38,000  Climbing FlightAware
Sun 12:14:39 AM 51.8416 -0.9383 108° East 444 511 36,500  Descending FlightAware
Sun 12:14:51 AM 51.8409 -0.9176 108° East 463 533 38,000  Climbing FlightAware
Sun 12:15:09 AM 51.8195 -0.8410 108° East 446 513 36,500  Descending FlightAware
Sun 12:15:22 AM 51.8184 -0.8182 108° East 464 534 38,000  Climbing FlightAware
Sun 12:15:39 AM 51.7975 -0.7437 108° East 450 518 36,500  Descending FlightAware
Sun 12:15:52 AM 51.7964 -0.7210 108° East 463 533 38,000  Climbing FlightAware
Sun 12:16:09 AM 51.7752 -0.6465 108° East 450 518 36,500  Descending FlightAware
Sun 12:16:22 AM 51.7741 -0.6225 108° East 463 533 38,000  Climbing FlightAware
Sun 12:16:40 AM 51.7528 -0.5486 108° East 450 518 36,500  Descending FlightAware
Sun 12:16:53 AM 51.7513 -0.5221 108° East 464 534 38,000  Climbing FlightAware
Sun 12:17:15 AM 51.7262 -0.4334 108° East 452 520 36,500  Descending FlightAware
Sun 12:17:24 AM 51.7286 -0.4239 108° East 463 533 38,000  Climbing FlightAware
Sun 12:17:40 AM 51.7080 -0.3547 108° East 454 522 36,500  Descending FlightAware
Sun 12:17:54 AM 51.7061 -0.3258 108° East 462 532 38,000  Climbing FlightAware
Sun 12:18:09 AM 51.6857 -0.2588 108° East 456 525 36,500  Descending FlightAware
Sun 12:18:24 AM 51.6836 -0.2289 108° East 460 529 38,000  Climbing FlightAware
Sun 12:18:45 AM 51.6587 -0.1435 108° East 456 525 36,500  Descending FlightAware
Sun 12:18:54 AM 51.6612 -0.1317 108° East 458 527 38,000  Climbing FlightAware
Sun 12:19:10 AM 51.6406 -0.0664 108° East 452 520 36,500  Descending FlightAware
Sun 12:19:25 AM 51.6383 -0.0344 108° East 457 526 38,000  Climbing FlightAware
Sun 12:19:45 AM 51.6139 0.0471 108° East 454 522 36,500  Descending FlightAware
Sun 12:19:56 AM 51.6153 0.0639 108° East 455 524 38,000  Climbing FlightAware
Sun 12:20:16 AM 51.5913 0.1426 108° East 450 518 36,500  Descending FlightAware
Sun 12:20:26 AM 51.5928 0.1598 108° East 454 522 38,000  Climbing FlightAware
Sun 12:20:46 AM 51.5688 0.2370 108° East 448 516 36,500  Descending FlightAware
Sun 12:20:56 AM 51.5705 0.2541 108° East 454 522 38,000  Climbing FlightAware
Sun 12:21:15 AM 51.5464 0.3304 108° East 446 513 36,500  Descending FlightAware
Sun 12:21:27 AM 51.5475 0.3505 108° East 453 521 38,000  Climbing FlightAware
Sun 12:21:45 AM 51.5238 0.4242 108° East 448 516 36,500  Descending FlightAware
Sun 12:21:59 AM 51.5238 0.4504 108° East 451 519 38,000  Climbing FlightAware
Sun 12:22:15 AM 51.5013 0.5176 108° East 444 511 36,500  Descending FlightAware
Sun 12:22:29 AM 51.5012 0.5445 108° East 451 519 38,000  Climbing FlightAware
Sun 12:22:57 AM 51.4696 0.6482 108° East 446 513 36,500  Descending FlightAware
Sun 12:23:00 AM 51.4785 0.6389 108° East 450 518 38,000  Climbing FlightAware
Sun 12:23:15 AM 51.4561 0.7040 108° East 446 513 36,500  Descending FlightAware
Sun 12:23:30 AM 51.4557 0.7333 108° East 451 519 38,000  Climbing FlightAware
Sun 12:23:46 AM 51.4333 0.7977 108° East 446 513 36,500  Descending FlightAware
Sun 12:24:01 AM 51.4328 0.8274 108° East 450 518 38,000  Climbing FlightAware
Sun 12:24:16 AM 51.4105 0.8905 108° East 446 513 36,500  Descending FlightAware
Sun 12:24:31 AM 51.4100 0.9214 108° East 450 518 38,000  Climbing FlightAware
Sun 12:24:46 AM 51.3876 0.9832 108° East 446 513 36,500  Descending FlightAware
Sun 12:25:01 AM 51.3872 1.0149 108° East 450 518 38,000  Climbing FlightAware
Sun 12:25:16 AM 51.3645 1.0763 108° East 444 511 36,500  Descending FlightAware
Sun 12:25:32 AM 51.3643 1.1081 108° East 450 518 38,000  Climbing FlightAware
Sun 12:25:52 AM 51.3371 1.1868 108° East 444 511 36,500  Descending FlightAware
Sun 12:26:02 AM 51.3413 1.2012 108° East 450 518 38,000  Climbing FlightAware
Sun 12:26:22 AM 51.3141 1.2794 108° East 442 509 36,500  Descending FlightAware
Sun 12:26:33 AM 51.3171 1.2974 108° East 450 518 38,000  Climbing FlightAware
Sun 12:26:51 AM 51.2900 1.3706 108° East 440 506 36,500  Descending FlightAware
Sun 12:27:07 AM 51.2930 1.3870 108° East 450 518 38,000 3,913 Climbing FlightAware
Sun 12:27:14 AM 51.2826 1.4234 115° Southeast 451 519 38,000 -3,333 Level FlightAware
Sun 12:27:34 AM 51.2538 1.4986 115° Southeast 448 516 36,500  Descending FlightAware
Sun 12:27:45 AM 51.2567 1.5176 115° Southeast 452 520 38,000  Climbing FlightAware
Sun 12:28:04 AM 51.2283 1.5898 115° Southeast 448 516 36,500 -2,432 Descending FlightAware
Sun 12:28:22 AM 51.2132 1.6446 114° Southeast 448 516 36,500 3,103 Level FlightAware
Sun 12:28:33 AM 51.2165 1.6632 114° Southeast 452 520 38,000  Climbing FlightAware
Sun 12:28:52 AM 51.1879 1.7360 114° Southeast 446 513 36,500 -2,432 Descending FlightAware
Sun 12:29:10 AM 51.1727 1.7914 114° Southeast 448 516 36,500 4,091 Level FlightAware
Sun 12:29:14 AM 51.1822 1.7882 114° Southeast 453 521 38,000  Climbing FlightAware
Sun 12:29:34 AM 51.1523 1.8644 114° Southeast 446 513 36,500  Descending FlightAware
Sun 12:29:44 AM 51.1568 1.8807 114° Southeast 454 522 38,000  Climbing FlightAware
Sun 12:30:10 AM 51.1217 1.9740 114° Southeast 448 516 36,500  Descending FlightAware
Sun 12:30:16 AM 51.1302 1.9765 114° Southeast 454 522 38,000  Climbing FlightAware
Sun 12:30:34 AM 51.1009 2.0475 114° Southeast 444 511 36,500  Descending FlightAware
Sun 12:30:47 AM 51.1039 2.0709 114° Southeast 455 524 38,000  Climbing FlightAware
Sun 12:31:04 AM 51.0753 2.1389 114° Southeast 444 511 36,500  Descending FlightAware
Sun 12:31:19 AM 51.0766 2.1686 114° Southeast 457 526 38,000  Climbing FlightAware
Sun 12:31:34 AM 51.0494 2.2305 114° Southeast 444 511 36,500  Descending FlightAware
Sun 12:31:50 AM 51.0502 2.2628 114° Southeast 458 527 38,000  Climbing FlightAware
Sun 12:32:10 AM 51.0181 2.3406 114° Southeast 452 520 36,500  Descending FlightAware
Sun 12:32:20 AM 51.0238 2.3566 114° Southeast 458 527 38,000  Climbing FlightAware
Sun 12:32:40 AM 50.9917 2.4330 114° Southeast 454 522 36,500  Descending FlightAware
Sun 12:32:52 AM 50.9965 2.4525 114° Southeast 458 527 38,000  Climbing FlightAware
Sun 12:33:10 AM 50.9653 2.5247 114° Southeast 450 518 36,500  Descending FlightAware
Sun 12:33:24 AM 50.9686 2.5503 114° Southeast 459 528 38,000  Climbing FlightAware
Sun 12:33:40 AM 50.9388 2.6170 114° Southeast 450 518 36,500 -2,647 Descending FlightAware
Sun 12:33:58 AM 50.9232 2.6715 115° Southeast 450 518 36,500 3,333 Level FlightAware
Sun 12:34:07 AM 50.9330 2.6740 115° Southeast 460 529 38,000  Climbing FlightAware
Sun 12:34:22 AM 50.9021 2.7449 115° Southeast 454 522 36,500 -2,727 Descending FlightAware
Sun 12:34:40 AM 50.8862 2.8000 115° Southeast 458 527 36,500 3,600 Level FlightAware
Sun 12:34:47 AM 50.8990 2.7930 115° Southeast 459 528 38,000  Climbing FlightAware
Sun 12:35:04 AM 50.8648 2.8733 115° Southeast 456 525 36,500 -2,571 Descending FlightAware
Sun 12:35:22 AM 50.8488 2.9281 115° Southeast 456 525 36,500 3,214 Level FlightAware
Sun 12:35:32 AM 50.8620 2.9220 115° Southeast 459 528 38,000  Climbing FlightAware
Sun 12:35:52 AM 50.8219 3.0198 115° Southeast 460 529 36,500 -2,368 Descending FlightAware
Sun 12:36:10 AM 50.8058 3.0743 115° Southeast 458 527 36,500 4,500 Level FlightAware
Sun 12:36:12 AM 50.8230 3.0570 115° Southeast 457 526 38,000  Climbing FlightAware
Sun 12:36:28 AM 50.7898 3.1288 115° Southeast 456 525 36,500 -2,571 Descending FlightAware
Sun 12:36:47 AM 50.7737 3.1838 115° Southeast 456 525 36,500 3,750 Level FlightAware
Sun 12:36:52 AM 50.7870 3.1780 115° Southeast 456 525 38,000  Climbing FlightAware
Sun 12:37:11 AM 50.7525 3.2563 115° Southeast 456 525 36,500 -2,432 Descending FlightAware
Sun 12:37:29 AM 50.7365 3.3103 115° Southeast 454 522 36,500 3,462 Level FlightAware
Sun 12:37:37 AM 50.7480 3.3130 115° Southeast 455 524 38,000  Climbing FlightAware
Sun 12:38:05 AM 50.7043 3.4182 115° Southeast 454 522 36,500  Descending FlightAware
Sun 12:38:17 AM 50.7120 3.4350 115° Southeast 454 522 38,000  Climbing FlightAware
Sun 12:38:53 AM 50.6612 3.5624 115° Southeast 454 522 36,500  Descending FlightAware
Sun 12:39:02 AM 50.6720 3.5670 115° Southeast 454 522 38,000  Climbing FlightAware
Sun 12:39:17 AM 50.6395 3.6337 115° Southeast 454 522 36,500 -2,727 Descending FlightAware
Sun 12:39:35 AM 50.6235 3.6874 115° Southeast 456 525 36,500 3,600 Level FlightAware
Sun 12:39:42 AM 50.6370 3.6860 115° Southeast 453 521 38,000  Climbing FlightAware
Sun 12:40:05 AM 50.5967 3.7766 115° Southeast 456 525 36,500  Descending FlightAware
Sun 12:40:22 AM 50.6000 3.8080 115° Southeast 451 519 38,000  Climbing FlightAware
Sun 12:40:47 AM 50.5589 3.9006 115° Southeast 456 525 36,500 -2,093 Descending FlightAware
Sun 12:41:05 AM 50.5430 3.9539 115° Southeast 454 522 36,500 4,500 Level FlightAware
Sun 12:41:07 AM 50.5610 3.9390 115° Southeast 448 516 38,000  Climbing FlightAware
Sun 12:41:23 AM 50.5271 4.0071 115° Southeast 454 522 36,500 -2,647 Descending FlightAware
Sun 12:41:41 AM 50.5110 4.0598 116° Southeast 454 522 36,500 3,750 Level FlightAware
Sun 12:41:47 AM 50.5250 4.0550 116° Southeast 446 513 38,000  Climbing FlightAware
Sun 12:42:05 AM 50.4896 4.1297 116° Southeast 454 522 36,500 -2,500 Descending FlightAware
Sun 12:42:23 AM 50.4730 4.1808 117° Southeast 450 518 36,500 3,333 Level FlightAware
Sun 12:42:32 AM 50.4870 4.1820 117° Southeast 445 512 38,000  Climbing FlightAware
Sun 12:42:47 AM 50.4522 4.2523 117° Southeast 1 1 36,500 -2,727 Descending FlightAware
Sun 12:43:05 AM 50.4361 4.3044 116° Southeast 450 518 36,500 3,600 Level FlightAware
Sun 12:43:12 AM 50.4500 4.3020 116° Southeast 444 511 38,000  Climbing FlightAware
Sun 12:43:29 AM 50.4133 4.3714 116° Southeast 450 518 36,500 -2,571 Descending FlightAware
Sun 12:43:47 AM 50.3972 4.4232 116° Southeast 1 1 36,500 3,913 Level FlightAware
Sun 12:43:52 AM 50.4140 4.4180 116° Southeast 443 510 38,000  Climbing FlightAware
Sun 12:44:11 AM 50.3769 4.4947 116° Southeast 1 1 36,500 -2,432 Descending FlightAware
Sun 12:44:29 AM 50.3602 4.5456 117° Southeast 1 1 36,500 3,462 Level FlightAware
Sun 12:44:37 AM 50.3740 4.5490 117° Southeast 443 510 38,000 1,875 Climbing FlightAware
Sun 12:45:17 AM 50.3380 4.6640 116° Southeast 442 509 38,000  Level FlightAware
Sun 12:45:57 AM 50.3020 4.7800 116° Southeast 442 509 38,000  Level FlightAware
Sun 12:46:42 AM 50.2630 4.9010 117° Southeast 441 507 38,000  Level FlightAware
Sun 12:47:22 AM 50.2260 5.0180 116° Southeast 440 506 38,000  Level FlightAware
Sun 12:48:02 AM 50.1900 5.1320 116° Southeast 440 506 38,000  Level FlightAware
Sun 12:48:47 AM 50.1490 5.2620 116° Southeast 439 505 38,000  Level FlightAware
Sun 12:49:27 AM 50.1140 5.3700 117° Southeast 439 505 38,000 -71 Level FlightAware
Sun 12:50:12 AM 50.0720 5.5000 117° Southeast 440 506 37,900 -800 Descending FlightAware
Sun 12:50:57 AM 50.0310 5.6270 117° Southeast 441 507 36,800 -1,129 Descending FlightAware
Sun 12:51:37 AM 49.9940 5.7410 117° Southeast 432 497 36,300 -975 Descending FlightAware
Sun 12:52:17 AM 49.9580 5.8500 117° Southeast 426 490 35,500 -975 Descending FlightAware
Sun 12:52:57 AM 49.9230 5.9570 117° Southeast 430 495 35,000 -353 Descending FlightAware
Sun 12:53:42 AM 49.8860 6.0670 118° Southeast 430 495 35,000  Level FlightAware
Sun 12:54:22 AM 49.8440 6.1920 117° Southeast 430 495 35,000  Level FlightAware
Sun 12:55:07 AM 49.8070 6.3060 117° Southeast 429 494 35,000  Level FlightAware
Sun 12:55:42 AM 49.7740 6.4040 118° Southeast 428 493 35,000 -75 Level FlightAware
Sun 12:56:27 AM 49.7340 6.5220 118° Southeast 424 488 34,900 -1,200 Descending FlightAware
Sun 12:57:07 AM 49.6980 6.6280 118° Southeast 424 488 33,300 -2,400 Descending FlightAware
Sun 12:57:52 AM 49.6570 6.7490 118° Southeast 422 486 31,500 -2,867 Descending FlightAware
Sun 12:58:37 AM 49.6150 6.8710 118° Southeast 430 495 29,000 -3,247 Descending FlightAware
Sun 12:59:17 AM 49.5770 6.9800 118° Southeast 431 496 26,900 -2,400 Descending FlightAware
Sun 12:59:57 AM 49.5390 7.0820 120° Southeast 411 473 25,800 -1,341 Descending FlightAware
Sun 01:00:42 AM 49.4900 7.1920 124° Southeast 406 467 25,000 -1,059 Descending FlightAware
Sun 01:01:22 AM 49.4440 7.2860 127° Southeast 406 467 24,300 -1,059 Descending FlightAware
Sun 01:02:07 AM 49.3950 7.3870 127° Southeast 407 468 23,500 -1,129 Descending FlightAware
Sun 01:02:47 AM 49.3490 7.4810 127° Southeast 402 463 22,700 -1,350 Descending FlightAware
Sun 01:03:27 AM 49.3050 7.5700 127° Southeast 399 459 21,700 -1,482 Descending FlightAware
Sun 01:04:12 AM 49.2550 7.6720 127° Southeast 390 449 20,600 -1,553 Descending FlightAware
Sun 01:04:52 AM 49.2120 7.7620 126° Southeast 386 444 19,500 -1,553 Descending FlightAware
Sun 01:05:37 AM 49.1630 7.8600 127° Southeast 382 440 18,400 -1,412 Descending FlightAware
Sun 01:06:17 AM 49.1260 7.9350 127° Southeast 364 419 17,500 -1,500 Descending FlightAware
Sun 01:06:57 AM 49.0840 8.0210 127° Southeast 356 410 16,400 -1,835 Descending FlightAware
Sun 01:07:42 AM 49.0390 8.1120 127° Southeast 351 404 14,900 -2,188 Descending FlightAware
Sun 01:08:22 AM 48.9980 8.1940 127° Southeast 346 398 13,300 -1,500 Descending FlightAware
Sun 01:09:02 AM 48.9640 8.2610 128° Southeast 345 397 12,900 -600 Descending FlightAware
Sun 01:11:00 AM 48.8512 8.6612 113° Southeast  Level Estimated
Sun 01:12:00 AM 48.7933 8.8639 113° Southeast  Level Estimated
Sun 01:13:00 AM 48.7350 9.0663 114° Southeast  Level Estimated
Sun 01:14:00 AM 48.6899 9.2220 114° Southeast  Level Estimated
Sun 01:15:00 AM 48.6899 9.2220 127° Southeast  Level Estimated
Sun 01:16:00 AM 48.6899 9.2220 127° Southeast  Level Estimated
Sun 01:17:00 AM 48.6899 9.2220 127° Southeast  Level Estimated
Sun 01:18:00 AM 48.6899 9.2220 127° Southeast  Level Estimated
Sun 01:19:00 AM 48.6899 9.2220 127° Southeast  Level Estimated
Sun 01:20:00 AM 48.6899 9.2220 127° Southeast  Level Estimated
Sun 01:21:00 AM 48.6899 9.2220 127° Southeast  Level Estimated
Sun 01:22:00 AM 48.6899 9.2220 127° Southeast  Level Estimated
Sun 01:23:00 AM 48.6899 9.2220 127° Southeast  Level Estimated
Sun 01:24:00 AM 48.6899 9.2220 127° Southeast  Level Estimated
Sun 01:25:00 AM 48.6899 9.2220 127° Southeast  Level Estimated
Sun 01:26:00 AM 48.6899 9.2220 127° Southeast  Level Estimated

Login

Don't have an account? Register now (free) for customized features, flight alerts, and more!